createdAt,value
2023-04-23T00:00:12.233Z,90.80
2023-04-23T00:02:40.862Z,90.80
2023-04-23T00:05:10.207Z,91.00
2023-04-23T00:07:38.555Z,90.90
2023-04-23T00:10:09.007Z,90.90
2023-04-23T00:12:37.232Z,90.70
2023-04-23T00:15:06.851Z,90.70
2023-04-23T00:17:36.094Z,91.00
2023-04-23T00:20:04.080Z,90.90
2023-04-23T00:22:32.083Z,90.90
2023-04-23T00:24:59.908Z,91.20
2023-04-23T00:27:27.794Z,90.90
2023-04-23T00:29:55.627Z,90.90
2023-04-23T18:51:06.297Z,88.80
2023-04-23T18:53:37.078Z,89.50
2023-04-23T18:56:05.012Z,89.60
2023-04-23T18:58:32.914Z,89.40
2023-04-23T19:01:01.067Z,89.50
2023-04-23T19:03:29.719Z,89.50
2023-04-23T19:05:58.187Z,89.50
2023-04-23T19:08:29.308Z,89.60
2023-04-23T19:10:57.364Z,89.80
2023-04-23T19:13:25.290Z,89.60
2023-04-23T19:15:53.648Z,89.50
2023-04-23T19:18:21.711Z,89.50
2023-04-23T19:20:49.571Z,89.50
2023-04-23T19:23:17.467Z,90.00
2023-04-23T19:25:46.797Z,89.40
2023-04-23T19:28:14.686Z,89.30
2023-04-23T19:30:42.600Z,89.20
2023-04-23T19:33:11.792Z,89.90
2023-04-23T19:35:40.525Z,89.30
2023-04-23T19:38:08.484Z,89.40
2023-04-23T19:40:36.459Z,88.40
2023-04-23T19:43:05.744Z,88.70
2023-04-23T19:45:33.893Z,89.30
2023-04-23T19:48:04.494Z,89.70
2023-04-23T19:50:32.912Z,89.50
2023-04-23T19:53:00.867Z,90.20
2023-04-23T19:55:28.917Z,89.70
2023-04-23T19:57:58.392Z,89.70
2023-04-23T20:00:29.941Z,90.20
2023-04-23T20:02:58.216Z,90.10
2023-04-23T20:05:27.834Z,89.60
2023-04-23T20:07:55.953Z,90.10
2023-04-23T20:10:29.011Z,89.30
2023-04-23T20:12:58.778Z,89.60
2023-04-23T20:15:28.274Z,89.70
2023-04-23T20:17:56.315Z,89.80
2023-04-23T20:20:25.655Z,89.80
2023-04-23T20:22:53.588Z,90.10
2023-04-23T20:25:25.547Z,89.00
2023-04-23T20:27:56.858Z,89.80
2023-04-23T20:30:24.929Z,89.80
2023-04-23T20:32:54.512Z,90.00
2023-04-23T20:35:22.485Z,90.00
2023-04-23T20:37:50.354Z,90.00
2023-04-23T20:40:18.902Z,89.40
2023-04-23T20:42:51.381Z,89.60
2023-04-23T20:45:20.807Z,88.20
2023-04-23T20:47:50.128Z,87.10
2023-04-23T20:50:19.606Z,87.80
2023-04-23T20:52:47.485Z,88.60
2023-04-23T20:55:15.634Z,89.80
2023-04-23T20:57:43.498Z,89.20
2023-04-23T21:00:12.740Z,89.90
2023-04-23T21:02:40.884Z,89.00
2023-04-23T21:05:09.504Z,89.10
2023-04-23T21:07:38.757Z,88.90
2023-04-23T21:10:07.692Z,89.20
2023-04-23T21:12:36.199Z,89.40
2023-04-23T21:15:04.545Z,89.50
2023-04-23T21:17:32.699Z,89.20
2023-04-23T21:20:00.596Z,90.00
2023-04-23T21:22:28.694Z,89.10
2023-04-23T21:24:57.970Z,89.30
2023-04-23T21:27:25.946Z,89.80
2023-04-23T21:29:53.945Z,89.50
2023-04-23T21:32:22.220Z,90.00
2023-04-23T21:34:50.192Z,89.50
2023-04-23T21:37:18.141Z,90.10
2023-04-23T21:39:46.029Z,89.20
2023-04-23T21:42:15.592Z,89.40
2023-04-23T21:44:44.000Z,90.00
2023-04-23T21:47:11.910Z,90.00
2023-04-23T21:49:39.964Z,90.20
2023-04-23T21:52:08.918Z,89.80
2023-04-23T21:54:36.848Z,90.20
2023-04-23T21:57:05.649Z,90.20
